Time;durP1;ratioP1;P1;durP2;ratioP2;P2;SDS_P1;SDS_P2;PMS_P1;PMS_P2;Temp;Humidity;BMP_temperature;BMP_pressure;BME280_temperature;BME280_humidity;BME280_pressure;Samples;Min_cycle;Max_cycle;Signal;HPM_P1;HPM_P2
2021/09/06 03:18:28;;;;;;;;;;;;;;;6.42;97.29;100117.53;4938229;29;19937;-82
2021/09/06 03:20:54;;;;;;;;;;;;;;;6.15;95.26;100122.44;4969319;28;19922;-83
2021/09/06 03:23:19;;;;;;;;;;;;;;;6.14;95.51;100123.31;4954519;29;20559;-84
2021/09/06 03:25:44;;;;;;;;;;;;;;;6.22;97.61;100118.78;4954440;29;19946;-85
2021/09/06 03:28:09;;;;;;;;;;;;;;;6.24;99.26;100121.38;4937227;29;19918;-84
2021/09/06 03:30:35;;;;;;;;;;;;;;;6.36;100.00;100116.72;4953014;29;19940;-84
2021/09/06 03:33:00;;;;;;;;;;;;;;;6.50;100.00;100111.19;4954156;29;19962;-84
2021/09/06 03:35:25;;;;;;;;;;;;;;;6.47;100.00;100110.38;4953094;28;19925;-84
2021/09/06 03:37:50;;;;;;;;;;;;;;;6.55;100.00;100121.63;4954300;29;19919;-84
2021/09/06 03:40:16;;;;;;;;;;;;;;;6.59;100.00;100115.41;4937151;29;19930;-83
2021/09/06 03:42:41;;;;;;;;;;;;;;;6.49;100.00;100112.09;4954126;29;19934;-82
2021/09/06 03:45:06;;;;;;;;;;;;;;;6.59;100.00;100119.78;4953943;29;19925;-83
2021/09/06 03:47:32;;;;;;;;;;;;;;;6.57;100.00;100113.69;4935981;29;19965;-83
2021/09/06 03:49:58;;;;;;;;;;;;;;;6.57;100.00;100109.28;4936729;29;19919;-83
2021/09/06 03:52:23;;;;;;;;;;;;;;;6.61;100.00;100110.97;4954039;29;19919;-84
2021/09/06 03:54:48;;;;;;;;;;;;;;;6.67;100.00;100115.22;4954051;29;20021;-83
2021/09/06 03:57:13;;;;;;;;;;;;;;;7.17;100.00;100115.00;4954368;29;19923;-83
2021/09/06 03:59:39;;;;;;;;;;;;;;;7.44;100.00;100114.31;4954048;29;20392;-84
2021/09/06 04:02:04;;;;;;;;;;;;;;;7.34;100.00;100111.94;4952551;29;19935;-81
2021/09/06 04:04:29;;;;;;;;;;;;;;;7.17;100.00;100109.72;4953974;29;19968;-82
2021/09/06 04:06:54;;;;;;;;;;;;;;;7.11;100.00;100115.13;4953909;29;19918;-82
2021/09/06 04:09:21;;;;;;;;;;;;;;;7.05;100.00;100114.38;4936688;29;20384;-80
2021/09/06 04:11:47;;;;;;;;;;;;;;;6.89;100.00;100110.34;4953883;29;19991;-82
2021/09/06 04:14:15;;;;;;;;;;;;;;;6.72;100.00;100111.59;4953880;29;19918;-83
2021/09/06 04:16:40;;;;;;;;;;;;;;;6.73;100.00;100120.34;4951770;28;19925;-81
2021/09/06 04:19:05;;;;;;;;;;;;;;;6.62;100.00;100125.88;4957329;29;19922;-83
2021/09/06 04:21:30;;;;;;;;;;;;;;;6.58;100.00;100124.19;4956536;29;19922;-82
2021/09/06 04:23:56;;;;;;;;;;;;;;;6.61;100.00;100125.91;4956364;29;19918;-82
2021/09/06 04:26:21;;;;;;;;;;;;;;;6.49;100.00;100129.66;4957684;29;19984;-83
2021/09/06 04:28:46;;;;;;;;;;;;;;;6.49;100.00;100137.53;4957419;29;19926;-84
2021/09/06 04:31:12;;;;;;;;;;;;;;;6.42;100.00;100130.69;4956389;29;19933;-84
2021/09/06 07:58:12;;;;;;;;;;;;;;;5.76;100.00;100269.47;4924829;29;19934;-84
2021/09/06 08:00:38;;;;;;;;;;;;;;;5.88;100.00;100274.56;4930775;29;19930;-84
2021/09/06 08:03:03;;;;;;;;;;;;;;;5.87;100.00;100270.22;4932276;29;20293;-84
2021/09/06 08:05:29;;;;;;;;;;;;;;;5.87;100.00;100269.31;4931730;29;19927;-84
2021/09/06 08:07:54;;;;;;;;;;;;;;;5.80;100.00;100282.56;4934261;29;19922;-84
2021/09/06 08:10:20;;;;;;;;;;;;;;;5.90;100.00;100275.41;4933153;29;19978;-84
2021/09/06 08:12:45;;;;;;;;;;;;;;;5.97;100.00;100277.09;4933881;29;19919;-84
2021/09/06 08:15:11;;;;;;;;;;;;;;;5.95;100.00;100286.75;4934546;29;20418;-84
2021/09/06 08:17:38;;;;;;;;;;;;;;;5.93;100.00;100283.25;4933802;29;20290;-84
2021/09/06 08:20:04;;;;;;;;;;;;;;;5.90;100.00;100285.91;4933491;29;20322;-84
2021/09/06 08:22:30;;;;;;;;;;;;;;;5.93;100.00;100285.88;4934233;29;19935;-85
2021/09/06 08:24:55;;;;;;;;;;;;;;;6.03;100.00;100286.66;4933040;29;19919;-84
2021/09/06 08:27:22;;;;;;;;;;;;;;;5.97;100.00;100290.25;4932979;29;20030;-84
2021/09/06 08:29:48;;;;;;;;;;;;;;;6.08;100.00;100294.44;4933785;29;20294;-84
2021/09/06 08:32:13;;;;;;;;;;;;;;;5.94;100.00;100290.25;4933320;29;19930;-84
2021/09/06 08:34:38;;;;;;;;;;;;;;;5.96;100.00;100291.13;4932688;29;19918;-83
2021/09/06 08:37:03;;;;;;;;;;;;;;;6.04;100.00;100293.63;4934015;29;19926;-84
2021/09/06 08:39:29;;;;;;;;;;;;;;;5.99;100.00;100291.06;4933985;29;19918;-84
2021/09/06 08:41:54;;;;;;;;;;;;;;;6.04;100.00;100292.78;4915804;29;20294;-84
2021/09/06 08:44:23;;;;;;;;;;;;;;;6.06;100.00;100291.84;4933443;29;19977;-84
2021/09/06 08:46:48;;;;;;;;;;;;;;;6.11;100.00;100291.75;4932720;29;19927;-84
2021/09/06 08:49:14;;;;;;;;;;;;;;;6.13;100.00;100297.91;4934028;29;19923;-85
2021/09/06 08:51:39;;;;;;;;;;;;;;;6.06;100.00;100288.34;4916815;29;20298;-85
2021/09/06 08:54:04;;;;;;;;;;;;;;;6.08;100.00;100289.19;4933690;29;20591;-84
2021/09/06 08:56:31;;;;;;;;;;;;;;;16.46;93.60;100260.84;4933716;29;20026;-90
2021/09/06 08:58:56;;;;;;;;;;;;;;;10.54;88.16;100270.84;4917022;29;19927;-82
2021/09/06 09:01:22;;;;;;;;;;;;;;;8.10;100.00;100278.00;4933320;29;19933;-83
2021/09/06 09:03:47;;;;;;;;;;;;;;;7.48;100.00;100283.84;4935389;29;19919;-84
2021/09/06 09:06:12;;;;;;;;;;;;;;;7.08;100.00;100293.50;4937642;29;19958;-83
2021/09/06 09:08:37;;;;;;;;;;;;;;;6.98;100.00;100284.03;4936848;29;19922;-84
2021/09/06 09:11:04;;;;;;;;;;;;;;;6.92;100.00;100286.78;4934544;29;19926;-83
2021/09/06 09:13:34;;;;;;;;;;;;;;;6.81;100.00;100288.75;4937110;29;19934;-82
2021/09/06 09:16:00;;;;;;;;;;;;;;;6.78;100.00;100283.56;4936733;29;20337;-83
2021/09/06 09:18:30;;;;;;;;;;;;;;;6.72;100.00;100288.06;4937027;29;20023;-82
2021/09/06 09:21:02;;;;;;;;;;;;;;;6.65;100.00;100285.56;4937161;29;19923;-82
2021/09/06 09:23:36;;;;;;;;;;;;;;;6.59;100.00;100289.19;4936355;29;19922;-83
2021/09/06 09:26:02;;;;;;;;;;;;;;;6.57;100.00;100293.59;4933764;29;19926;-82
2021/09/06 09:28:28;;;;;;;;;;;;;;;6.66;100.00;100288.16;4936327;29;20396;-84
2021/09/06 09:31:03;;;;;;;;;;;;;;;6.57;100.00;100288.31;4936230;29;19974;-84
2021/09/06 09:33:28;;;;;;;;;;;;;;;6.61;100.00;100290.03;4935873;29;20271;-83
2021/09/06 09:35:57;;;;;;;;;;;;;;;6.67;100.00;100289.91;4936516;29;19947;-83
2021/09/06 09:38:32;;;;;;;;;;;;;;;6.61;100.00;100287.38;4936917;29;19929;-82
2021/09/06 09:40:59;;;;;;;;;;;;;;;6.64;100.00;100289.97;4935020;29;19923;-83
2021/09/06 09:43:30;;;;;;;;;;;;;;;6.58;100.00;100286.59;4936732;29;19929;-84
2021/09/06 09:46:05;;;;;;;;;;;;;;;6.59;100.00;100283.03;4936276;29;20021;-83
2021/09/06 09:48:30;;;;;;;;;;;;;;;6.64;100.00;100278.56;4936633;29;19923;-83
2021/09/06 09:50:55;;;;;;;;;;;;;;;6.62;100.00;100278.59;4936417;29;19930;-83
2021/09/06 09:53:21;;;;;;;;;;;;;;;6.60;100.00;100283.00;4935827;29;20330;-83
2021/09/06 09:55:47;;;;;;;;;;;;;;;6.62;100.00;100281.25;4935154;29;19930;-82
2021/09/06 09:58:13;;;;;;;;;;;;;;;6.70;100.00;100292.50;4936044;29;20397;-82
2021/09/06 10:00:40;;;;;;;;;;;;;;;6.67;100.00;100283.75;4936524;29;19919;-83
2021/09/06 10:03:06;;;;;;;;;;;;;;;6.64;100.00;100282.06;4935341;29;19922;-87
2021/09/06 10:05:32;;;;;;;;;;;;;;;6.71;100.00;100275.78;4934683;29;20290;-84
2021/09/06 10:07:59;;;;;;;;;;;;;;;6.64;100.00;100281.22;4936331;29;19927;-85
2021/09/06 10:10:25;;;;;;;;;;;;;;;6.67;100.00;100284.66;4934960;29;19918;-84
2021/09/06 10:13:03;;;;;;;;;;;;;;;6.66;100.00;100279.41;4936067;29;20411;-87
2021/09/06 10:15:28;;;;;;;;;;;;;;;6.63;100.00;100279.47;4918163;29;20021;-85
2021/09/06 10:17:53;;;;;;;;;;;;;;;6.61;100.00;100283.91;4936159;29;20017;-86
2021/09/06 10:20:18;;;;;;;;;;;;;;;6.58;100.00;100274.28;4934726;29;19931;-84
2021/09/06 10:22:45;;;;;;;;;;;;;;;6.63;100.00;100276.81;4919374;29;20401;-88
2021/09/06 10:25:11;;;;;;;;;;;;;;;6.54;100.00;100277.84;4934424;29;19930;-85
2021/09/06 10:27:38;;;;;;;;;;;;;;;6.58;100.00;100269.00;4916937;29;19926;-84
2021/09/06 10:30:08;;;;;;;;;;;;;;;6.68;99.87;100269.69;4935809;29;19930;-84
2021/09/06 10:32:35;;;;;;;;;;;;;;;6.62;99.77;100265.44;4936204;29;19922;-87
2021/09/06 10:35:01;;;;;;;;;;;;;;;6.59;99.58;100265.50;4936326;29;20005;-84
2021/09/06 10:37:28;;;;;;;;;;;;;;;6.52;100.00;100259.44;4918896;29;20318;-84
2021/09/06 10:39:53;;;;;;;;;;;;;;;6.63;100.00;100261.03;4936333;29;19929;-89
2021/09/06 10:42:29;;;;;;;;;;;;;;;6.65;99.82;100252.22;4933500;29;19926;-84
2021/09/06 10:44:56;;;;;;;;;;;;;;;6.61;100.00;100249.66;4934976;29;19923;-88
2021/09/06 10:47:23;;;;;;;;;;;;;;;6.69;100.00;100253.00;4934169;29;20267;-83
2021/09/06 10:49:48;;;;;;;;;;;;;;;6.62;99.89;100254.91;4933524;29;19923;-84
2021/09/06 10:52:14;;;;;;;;;;;;;;;6.59;100.00;100251.44;4935307;29;19929;-85
2021/09/06 10:54:40;;;;;;;;;;;;;;;6.64;99.91;100242.56;4935042;29;19930;-87
2021/09/06 10:57:08;;;;;;;;;;;;;;;6.62;99.78;100243.47;4917290;29;19922;-85
2021/09/06 10:59:33;;;;;;;;;;;;;;;6.66;98.43;100245.19;4934840;29;19954;-87
2021/09/06 11:01:59;;;;;;;;;;;;;;;6.59;98.42;100233.91;4932649;29;20351;-85
2021/09/06 11:04:27;;;;;;;;;;;;;;;6.59;98.72;100241.78;4918102;29;20017;-85
2021/09/06 11:07:00;;;;;;;;;;;;;;;6.63;98.70;100242.59;4918452;29;20303;-84
2021/09/06 11:09:26;;;;;;;;;;;;;;;6.71;99.76;100244.16;4916878;29;19982;-87
2021/09/06 11:11:57;;;;;;;;;;;;;;;6.64;98.98;100241.72;4917611;29;19927;-87
2021/09/06 11:14:30;;;;;;;;;;;;;;;6.71;99.25;100252.06;4933757;29;19970;-86
2021/09/06 11:16:55;;;;;;;;;;;;;;;6.67;98.57;100246.88;4933989;29;19923;-90
2021/09/06 11:19:21;;;;;;;;;;;;;;;6.61;98.54;100250.53;4934245;29;19931;-85
2021/09/06 11:21:46;;;;;;;;;;;;;;;6.61;98.55;100244.41;4912091;29;19950;-85
2021/09/06 11:24:11;;;;;;;;;;;;;;;6.62;98.81;100241.75;4935391;29;19945;-91
2021/09/06 11:26:37;;;;;;;;;;;;;;;6.58;99.29;100240.06;4916693;29;19923;-89
2021/09/06 11:29:02;;;;;;;;;;;;;;;6.65;97.98;100243.44;4918992;29;20478;-84
2021/09/06 11:31:28;;;;;;;;;;;;;;;6.70;98.09;100239.81;4935481;29;19923;-89
2021/09/06 11:34:04;;;;;;;;;;;;;;;6.67;98.98;100239.88;4934562;29;19923;-87
2021/09/06 11:36:30;;;;;;;;;;;;;;;6.55;98.49;100232.22;4918652;29;19926;-91
2021/09/06 11:38:56;;;;;;;;;;;;;;;6.56;98.61;100233.94;4918569;29;19922;-87
2021/09/06 11:41:21;;;;;;;;;;;;;;;6.57;98.06;100234.81;4916815;29;20445;-85
2021/09/06 11:43:47;;;;;;;;;;;;;;;6.54;98.57;100231.34;4918412;29;19957;-88
2021/09/06 11:46:13;;;;;;;;;;;;;;;6.63;98.32;100235.56;4935352;29;19926;-85
2021/09/06 11:48:40;;;;;;;;;;;;;;;6.62;98.50;100233.84;4918502;29;19923;-88
2021/09/06 11:51:06;;;;;;;;;;;;;;;6.64;98.07;100224.13;4934908;29;19927;-88
2021/09/06 11:53:32;;;;;;;;;;;;;;;6.63;99.32;100235.56;4934979;29;19950;-87
2021/09/06 11:55:57;;;;;;;;;;;;;;;6.60;98.32;100230.34;4934161;29;19923;-90
2021/09/06 11:58:23;;;;;;;;;;;;;;;6.61;99.23;100232.09;4933932;29;19930;-84
2021/09/06 12:00:48;;;;;;;;;;;;;;;6.57;98.17;100230.41;4933898;29;19919;-91
2021/09/06 12:03:22;;;;;;;;;;;;;;;6.66;97.84;100234.63;4931327;29;20366;-86
2021/09/06 12:05:48;;;;;;;;;;;;;;;6.78;99.16;100230.88;4917862;29;20410;-83
2021/09/06 12:08:14;;;;;;;;;;;;;;;6.89;100.00;100235.06;4934756;29;19929;-90
2021/09/06 12:10:41;;;;;;;;;;;;;;;6.69;97.70;100238.06;4916006;29;19927;-86
2021/09/06 12:13:07;;;;;;;;;;;;;;;6.69;97.74;100232.81;4917647;29;19926;-85
2021/09/06 12:15:34;;;;;;;;;;;;;;;6.83;100.00;100244.81;4917585;29;19926;-91
2021/09/06 12:18:06;;;;;;;;;;;;;;;6.85;100.00;100243.03;4932461;29;19926;-89
2021/09/06 12:20:34;;;;;;;;;;;;;;;6.83;100.00;100242.19;4926377;29;20495;-88
2021/09/06 12:22:59;;;;;;;;;;;;;;;7.00;99.99;100245.34;4933005;29;19923;-88
2021/09/06 12:25:25;;;;;;;;;;;;;;;6.86;98.34;100239.50;4915757;29;19978;-87
2021/09/06 12:27:50;;;;;;;;;;;;;;;6.88;98.37;100235.06;4917328;29;19923;-86
2021/09/06 12:30:15;;;;;;;;;;;;;;;6.76;98.49;100236.19;4916979;29;19931;-92
2021/09/06 12:32:40;;;;;;;;;;;;;;;6.83;97.78;100231.66;4917733;29;20497;-84
2021/09/06 12:35:06;;;;;;;;;;;;;;;6.82;97.01;100233.44;4916563;29;19933;-89
2021/09/06 12:37:31;;;;;;;;;;;;;;;6.84;96.32;100238.66;4934244;29;19969;-84
2021/09/06 12:39:58;;;;;;;;;;;;;;;6.65;97.48;100231.16;4920614;29;19937;-84
2021/09/06 12:42:23;;;;;;;;;;;;;;;6.71;97.44;100227.50;4935804;29;19954;-85
2021/09/06 12:44:48;;;;;;;;;;;;;;;6.74;97.22;100235.34;4921217;29;19973;-84
2021/09/06 12:47:14;;;;;;;;;;;;;;;6.68;98.10;100227.56;4937957;29;19930;-84
2021/09/06 12:49:39;;;;;;;;;;;;;;;6.83;100.00;100231.66;4936181;29;19926;-84
2021/09/06 12:52:05;;;;;;;;;;;;;;;6.71;98.42;100225.72;4937689;29;19978;-84
2021/09/06 12:54:30;;;;;;;;;;;;;;;6.82;97.21;100229.94;4937845;29;19978;-84
2021/09/06 12:56:57;;;;;;;;;;;;;;;6.75;96.94;100234.47;4919675;29;19946;-84
2021/09/06 12:59:23;;;;;;;;;;;;;;;6.69;97.67;100224.91;4920599;29;19923;-91
2021/09/06 13:01:50;;;;;;;;;;;;;;;6.77;97.45;100230.03;4921168;29;19915;-85
2021/09/06 13:04:16;;;;;;;;;;;;;;;6.67;97.92;100225.81;4929495;29;20379;-85
2021/09/06 13:06:41;;;;;;;;;;;;;;;6.73;98.04;100215.16;4936319;29;19918;-89
2021/09/06 13:09:06;;;;;;;;;;;;;;;6.70;97.65;100217.84;4937128;29;20009;-84
2021/09/06 13:11:32;;;;;;;;;;;;;;;6.71;97.82;100219.59;4920024;29;19923;-86
2021/09/06 13:13:57;;;;;;;;;;;;;;;6.68;97.91;100222.31;4936669;29;19915;-85
2021/09/06 13:16:22;;;;;;;;;;;;;;;6.77;97.39;100226.53;4937663;29;19945;-85
2021/09/06 13:18:47;;;;;;;;;;;;;;;6.71;97.76;100217.84;4935821;29;19934;-86
2021/09/06 13:21:13;;;;;;;;;;;;;;;6.75;97.38;100216.03;4937122;29;19925;-84
2021/09/06 13:23:40;;;;;;;;;;;;;;;6.82;98.29;100219.41;4931077;29;19932;-84
2021/09/06 13:26:11;;;;;;;;;;;;;;;6.66;97.54;100206.53;4934658;29;19922;-89
2021/09/06 13:28:36;;;;;;;;;;;;;;;6.70;97.46;100210.84;4936241;29;19919;-85
2021/09/06 13:31:02;;;;;;;;;;;;;;;6.91;100.00;100203.41;4936290;29;19923;-89
2021/09/06 13:33:27;;;;;;;;;;;;;;;6.74;97.85;100206.38;4936960;29;19923;-84
2021/09/06 13:35:52;;;;;;;;;;;;;;;6.66;98.34;100210.94;4935951;29;19945;-85
2021/09/06 13:38:17;;;;;;;;;;;;;;;6.81;97.45;100212.38;4935082;29;19969;-85
2021/09/06 13:40:43;;;;;;;;;;;;;;;6.89;98.31;100202.53;4934763;29;19923;-85
2021/09/06 13:43:08;;;;;;;;;;;;;;;6.70;98.09;100208.22;4935867;29;19923;-91
2021/09/06 13:45:33;;;;;;;;;;;;;;;6.81;97.45;100209.75;4936012;29;19922;-84
2021/09/06 13:48:00;;;;;;;;;;;;;;;6.85;96.92;100199.13;4936280;29;20203;-90
2021/09/06 13:50:28;;;;;;;;;;;;;;;6.80;97.01;100210.66;4919549;29;19927;-90
2021/09/06 13:52:53;;;;;;;;;;;;;;;6.81;96.53;100205.38;4919952;29;19970;-85
2021/09/06 13:55:19;;;;;;;;;;;;;;;6.69;96.67;100208.25;4936567;29;19927;-84
2021/09/06 13:57:44;;;;;;;;;;;;;;;6.72;97.48;100197.66;4917981;29;19930;-90
2021/09/06 14:00:09;;;;;;;;;;;;;;;6.74;96.90;100190.56;4935001;29;19922;-87
2021/09/06 14:02:34;;;;;;;;;;;;;;;6.70;97.56;100192.41;4919263;29;19930;-85
2021/09/06 14:05:00;;;;;;;;;;;;;;;6.74;97.82;100195.84;4935257;29;19923;-85
2021/09/06 14:07:25;;;;;;;;;;;;;;;6.72;97.46;100190.59;4936525;29;19935;-86
2021/09/06 14:09:50;;;;;;;;;;;;;;;6.68;98.09;100195.97;4934783;29;19922;-88
2021/09/06 14:12:15;;;;;;;;;;;;;;;6.71;97.83;100195.91;4933774;29;19931;-85
2021/09/06 14:14:41;;;;;;;;;;;;;;;6.70;98.45;100197.69;4936136;29;19922;-84
2021/09/06 14:17:06;;;;;;;;;;;;;;;6.70;98.43;100200.31;4919421;29;19923;-85
2021/09/06 14:19:32;;;;;;;;;;;;;;;6.84;97.17;100199.16;4918588;29;19958;-85
2021/09/06 14:21:57;;;;;;;;;;;;;;;6.86;97.06;100194.72;4918360;29;19970;-84
2021/09/06 14:24:22;;;;;;;;;;;;;;;7.28;95.47;100192.06;4934285;29;19927;-84
2021/09/06 14:26:48;;;;;;;;;;;;;;;7.01;96.94;100188.25;4933234;29;19940;-84
2021/09/06 14:29:13;;;;;;;;;;;;;;;6.89;97.11;100185.00;4934284;29;19930;-83
2021/09/06 14:31:38;;;;;;;;;;;;;;;6.86;97.38;100189.44;4934791;29;20005;-84
2021/09/06 14:34:03;;;;;;;;;;;;;;;6.81;97.36;100188.69;4929975;29;20366;-87
2021/09/06 14:36:33;;;;;;;;;;;;;;;6.80;96.99;100187.81;4930923;29;20298;-86
2021/09/06 14:38:59;;;;;;;;;;;;;;;6.69;97.30;100181.91;4933632;29;19927;-83
2021/09/06 14:41:24;;;;;;;;;;;;;;;6.79;97.17;100183.44;4932872;29;19998;-87
2021/09/06 14:43:49;;;;;;;;;;;;;;;6.78;97.35;100180.84;4933635;29;20017;-84
2021/09/06 14:46:14;;;;;;;;;;;;;;;6.84;97.89;100172.81;4933969;29;20425;-85
2021/09/06 14:48:40;;;;;;;;;;;;;;;6.78;96.98;100172.94;4932752;29;19931;-83
2021/09/06 14:51:06;;;;;;;;;;;;;;;6.86;97.36;100173.63;4933400;29;19938;-85
2021/09/06 14:53:31;;;;;;;;;;;;;;;6.82;97.17;100182.53;4932742;29;20767;-84
2021/09/06 14:55:56;;;;;;;;;;;;;;;6.83;97.12;100179.84;4931264;29;19978;-85
2021/09/06 14:58:21;;;;;;;;;;;;;;;6.73;97.70;100173.91;4933658;29;19982;-84
2021/09/06 15:00:47;;;;;;;;;;;;;;;6.76;97.63;100169.47;4933383;29;20032;-84
2021/09/06 15:03:12;;;;;;;;;;;;;;;6.85;98.04;100171.91;4933097;29;20294;-83
2021/09/06 15:05:37;;;;;;;;;;;;;;;6.84;97.60;100175.44;4934535;29;19974;-84
2021/09/06 15:08:02;;;;;;;;;;;;;;;6.77;97.72;100169.44;4935039;29;19926;-87
2021/09/06 15:10:28;;;;;;;;;;;;;;;6.87;97.21;100176.25;4932347;29;19930;-83
2021/09/06 15:12:53;;;;;;;;;;;;;;;6.88;95.90;100177.13;4933634;29;20434;-84
2021/09/06 15:15:18;;;;;;;;;;;;;;;6.80;97.22;100176.44;4934145;29;19918;-85
2021/09/06 15:17:44;;;;;;;;;;;;;;;6.77;97.14;100179.97;4933636;29;19923;-83
2021/09/06 15:20:09;;;;;;;;;;;;;;;6.76;97.08;100177.38;4934608;29;20416;-84
2021/09/06 15:22:34;;;;;;;;;;;;;;;6.83;97.18;100182.50;4917038;29;20017;-86
2021/09/06 15:25:00;;;;;;;;;;;;;;;6.85;96.64;100180.69;4930816;29;19927;-86
2021/09/06 15:27:25;;;;;;;;;;;;;;;6.85;96.64;100174.56;4931147;29;20026;-85
2021/09/06 15:30:13;;;;;;;;;;;;;;;6.81;97.07;100172.88;4933456;29;19927;-84
2021/09/06 15:32:39;;;;;;;;;;;;;;;6.80;97.10;100168.53;4934397;29;19923;-87
2021/09/06 15:35:05;;;;;;;;;;;;;;;6.76;97.51;100166.84;4930205;29;19935;-84
2021/09/06 15:37:31;;;;;;;;;;;;;;;6.86;97.36;100168.38;4934697;29;19919;-86
2021/09/06 15:39:56;;;;;;;;;;;;;;;6.89;96.62;100168.31;4930401;29;20017;-87
2021/09/06 15:42:22;;;;;;;;;;;;;;;6.87;96.32;100164.84;4931421;29;19933;-84
2021/09/06 15:44:48;;;;;;;;;;;;;;;6.83;96.83;100164.06;4932292;29;19978;-83
2021/09/06 15:47:15;;;;;;;;;;;;;;;6.77;96.56;100164.19;4933091;29;19961;-84
2021/09/06 15:49:41;;;;;;;;;;;;;;;6.73;96.77;100166.03;4933554;29;19919;-87
2021/09/06 15:52:06;;;;;;;;;;;;;;;6.81;96.53;100165.88;4931252;29;19931;-85
2021/09/06 15:54:33;;;;;;;;;;;;;;;6.76;95.72;100159.78;4934876;29;19942;-86
2021/09/06 15:56:58;;;;;;;;;;;;;;;6.71;96.09;100172.19;4932079;29;19930;-84
2021/09/06 15:59:23;;;;;;;;;;;;;;;6.71;96.94;100169.56;4934833;29;20290;-84
2021/09/06 16:01:49;;;;;;;;;;;;;;;6.81;97.01;100167.59;4929614;29;19919;-85
2021/09/06 16:04:14;;;;;;;;;;;;;;;6.72;97.28;100166.91;4932829;29;20085;-85
2021/09/06 16:06:40;;;;;;;;;;;;;;;6.72;97.26;100161.63;4932482;29;19938;-84
2021/09/06 16:09:06;;;;;;;;;;;;;;;6.73;97.55;100165.13;4932690;29;19919;-83
2021/09/06 16:11:31;;;;;;;;;;;;;;;6.82;97.14;100166.72;4932001;29;19929;-85
2021/09/06 16:13:56;;;;;;;;;;;;;;;6.82;96.67;100166.72;4936161;29;19973;-84
2021/09/06 16:16:22;;;;;;;;;;;;;;;6.89;96.55;100165.66;4936875;29;20370;-84
2021/09/06 16:18:47;;;;;;;;;;;;;;;6.84;96.06;100165.75;4936357;29;20061;-85
2021/09/06 16:21:13;;;;;;;;;;;;;;;6.69;97.02;100169.59;4920249;29;19965;-84
2021/09/06 16:23:38;;;;;;;;;;;;;;;6.66;97.28;100166.16;4937481;29;19926;-84
2021/09/06 16:26:04;;;;;;;;;;;;;;;6.69;97.53;100166.13;4919977;29;19994;-86
2021/09/06 16:28:29;;;;;;;;;;;;;;;6.70;97.47;100163.44;4937507;29;19977;-85
2021/09/06 16:30:54;;;;;;;;;;;;;;;6.70;97.84;100167.81;4938354;29;20445;-83
2021/09/06 16:33:20;;;;;;;;;;;;;;;6.80;96.43;100168.53;4937528;29;19997;-84
2021/09/06 16:35:45;;;;;;;;;;;;;;;6.74;97.10;100174.78;4936715;29;19930;-86
2021/09/06 16:38:11;;;;;;;;;;;;;;;6.87;96.75;100172.75;4938234;29;19973;-87
2021/09/06 16:40:36;;;;;;;;;;;;;;;6.75;97.03;100166.00;4937100;29;19930;-84
2021/09/06 16:43:01;;;;;;;;;;;;;;;6.70;97.39;100168.72;4936744;29;20286;-84
2021/09/06 16:45:26;;;;;;;;;;;;;;;7.62;96.08;100162.25;4938209;29;19935;-84
2021/09/06 16:47:53;;;;;;;;;;;;;;;7.05;96.88;100180.25;4937953;29;19966;-85
2021/09/06 16:50:18;;;;;;;;;;;;;;;6.89;97.55;100173.56;4937879;29;19925;-85
2021/09/06 16:52:44;;;;;;;;;;;;;;;6.91;97.09;100174.44;4936686;29;20020;-86
2021/09/06 16:55:10;;;;;;;;;;;;;;;6.86;97.36;100173.63;4936698;29;20009;-84
2021/09/06 16:57:35;;;;;;;;;;;;;;;6.75;97.35;100175.63;4934435;29;19923;-84
2021/09/06 17:00:18;;;;;;;;;;;;;;;6.71;97.58;100173.06;4937865;29;19953;-85
2021/09/06 17:02:44;;;;;;;;;;;;;;;6.89;96.65;100170.94;4937570;29;19919;-85
2021/09/06 17:05:11;;;;;;;;;;;;;;;6.85;96.36;100171.91;4936462;29;20393;-84
2021/09/06 17:07:39;;;;;;;;;;;;;;;6.72;97.48;100172.16;4936965;29;19923;-84
2021/09/06 17:10:06;;;;;;;;;;;;;;;6.80;97.68;100179.06;4937395;29;20017;-87
2021/09/06 17:12:31;;;;;;;;;;;;;;;6.83;96.51;100171.06;4936300;29;19919;-84
2021/09/06 17:14:56;;;;;;;;;;;;;;;6.82;97.29;100172.84;4937664;29;19926;-84
2021/09/06 17:17:21;;;;;;;;;;;;;;;6.76;97.47;100161.56;4937579;29;19949;-87
2021/09/06 17:19:47;;;;;;;;;;;;;;;6.81;97.92;100175.50;4936117;29;20025;-84
2021/09/06 17:22:12;;;;;;;;;;;;;;;6.89;97.33;100168.31;4920501;29;19930;-84
2021/09/06 17:24:39;;;;;;;;;;;;;;;6.88;97.09;100166.59;4934935;29;19974;-83
2021/09/06 17:27:05;;;;;;;;;;;;;;;6.78;97.24;100162.41;4935988;29;20051;-83
2021/09/06 17:29:30;;;;;;;;;;;;;;;6.82;98.02;100166.72;4936132;29;19923;-85
2021/09/06 17:31:56;;;;;;;;;;;;;;;6.82;98.03;100164.94;4936185;29;19925;-88
2021/09/06 17:34:21;;;;;;;;;;;;;;;6.87;97.49;100164.84;4935874;29;19934;-83
2021/09/06 17:36:46;;;;;;;;;;;;;;;6.85;97.61;100166.66;4937199;29;20054;-87
2021/09/06 17:39:11;;;;;;;;;;;;;;;6.90;97.46;100164.78;4935957;29;19923;-84
2021/09/06 17:41:37;;;;;;;;;;;;;;;6.88;97.68;100159.53;4934488;29;19926;-83
2021/09/06 17:44:02;;;;;;;;;;;;;;;6.94;96.78;100161.19;4932634;29;20362;-87
2021/09/06 17:46:27;;;;;;;;;;;;;;;6.89;97.00;100163.91;4932804;29;19926;-83
2021/09/06 17:48:54;;;;;;;;;;;;;;;6.84;98.17;100170.19;4935535;29;19918;-84
2021/09/06 17:51:19;;;;;;;;;;;;;;;6.84;98.58;100170.19;4936024;29;19918;-83
2021/09/06 17:53:44;;;;;;;;;;;;;;;6.92;98.43;100165.59;4936849;29;20013;-86
2021/09/06 17:56:09;;;;;;;;;;;;;;;6.93;98.88;100171.75;4935683;29;19918;-85
2021/09/06 17:58:34;;;;;;;;;;;;;;;6.90;99.22;100167.41;4936606;29;19927;-87
2021/09/06 18:01:00;;;;;;;;;;;;;;;7.01;99.25;100177.72;4934594;29;19919;-87
2021/09/06 18:03:25;;;;;;;;;;;;;;;7.01;98.50;100173.31;4936667;29;19926;-84
2021/09/06 18:05:54;;;;;;;;;;;;;;;6.97;99.21;100179.53;4935783;29;20383;-84
2021/09/06 18:08:19;;;;;;;;;;;;;;;7.05;98.59;100182.91;4936051;29;19919;-89
2021/09/06 18:10:44;;;;;;;;;;;;;;;6.97;99.49;100187.44;4935030;29;19957;-84
2021/09/06 18:13:10;;;;;;;;;;;;;;;7.05;98.59;100196.06;4936561;29;20370;-86
2021/09/06 18:15:35;;;;;;;;;;;;;;;6.98;99.53;100196.22;4935134;29;19914;-83
2021/09/06 18:18:00;;;;;;;;;;;;;;;6.97;99.25;100197.13;4936253;29;19962;-85
2021/09/06 18:20:27;;;;;;;;;;;;;;;6.93;99.85;100201.59;4936412;29;20406;-89
2021/09/06 18:22:52;;;;;;;;;;;;;;;7.04;99.24;100196.09;4936267;29;19923;-86
2021/09/06 18:25:18;;;;;;;;;;;;;;;7.04;99.20;100204.00;4936341;29;19919;-84
2021/09/06 18:27:44;;;;;;;;;;;;;;;7.03;99.72;100205.75;4935003;29;19919;-83
2021/09/06 18:30:10;;;;;;;;;;;;;;;7.01;99.69;100204.94;4936207;29;20373;-87
2021/09/06 18:32:35;;;;;;;;;;;;;;;6.99;99.31;100205.84;4936181;29;19990;-84
2021/09/06 18:35:01;;;;;;;;;;;;;;;7.03;99.34;100205.75;4936110;29;19919;-87
2021/09/06 18:37:26;;;;;;;;;;;;;;;7.01;99.24;100209.34;4935308;29;19922;-84
2021/09/06 18:39:52;;;;;;;;;;;;;;;7.10;98.93;100209.16;4936066;29;19926;-84
2021/09/06 18:42:17;;;;;;;;;;;;;;;7.12;98.40;100217.03;4934839;29;19919;-84
2021/09/06 18:44:42;;;;;;;;;;;;;;;7.02;99.08;100217.22;4935922;29;20017;-84
2021/09/06 18:47:08;;;;;;;;;;;;;;;6.96;99.44;100212.06;4935872;29;19931;-83
2021/09/06 18:49:33;;;;;;;;;;;;;;;7.00;100.00;100215.50;4935873;29;20394;-83
2021/09/06 18:51:59;;;;;;;;;;;;;;;7.05;99.62;100217.16;4935826;29;19922;-83
2021/09/06 18:54:24;;;;;;;;;;;;;;;7.04;99.91;100215.41;4935839;29;19926;-83
2021/09/06 18:56:49;;;;;;;;;;;;;;;7.03;99.62;100218.06;4934331;29;20062;-83
2021/09/06 18:59:14;;;;;;;;;;;;;;;7.02;99.54;100227.75;4935810;29;19919;-86
2021/09/06 19:01:40;;;;;;;;;;;;;;;7.03;100.00;100218.94;4935552;29;19974;-83
2021/09/06 19:04:05;;;;;;;;;;;;;;;7.07;99.54;100230.28;4935702;29;19919;-85
2021/09/06 19:06:30;;;;;;;;;;;;;;;7.09;99.42;100234.63;4935580;29;19967;-83
2021/09/06 19:08:56;;;;;;;;;;;;;;;7.12;98.59;100230.19;4935625;29;20358;-83
2021/09/06 19:11:21;;;;;;;;;;;;;;;7.02;99.34;100238.28;4934193;29;19919;-86
2021/09/06 19:13:48;;;;;;;;;;;;;;;7.03;99.54;100245.28;4935455;29;20440;-83
2021/09/06 19:16:14;;;;;;;;;;;;;;;7.15;99.07;100240.66;4935545;29;19958;-87
2021/09/06 19:18:39;;;;;;;;;;;;;;;7.09;98.66;100242.50;4935372;29;19993;-83